Airfield :
LOGIN :

Register | Disclaimer

   EN    FR    IT 

 










Legend :    VFR   Marginal VFR   IFR   Intensive IFR   Very Intensive IFR
Visi :
Ceiling :
>= 8 km
>= 3000ft
5 to 8 km
1000 to 3000 ft
1500m to 5 km
500 to 1000 ft
800 to 1500m
200 to 500 ft
< 800m
< 200 ft
Symbols :   Thunderstorms  Fog  Heavy snow  Heavy precipitations  Wind > 20 kt
SIGMETs :     Misc.  Thunderstorms  Icing  Turbulence  Mountain Waves  Volcanic Ashes






- Airport Elevation : 622 ft
- IATA code : SVO


UUEE - Sheremetyevo International

CURRENT METAR :
  • 310700Z 07002MPS 9000 2900SW BR BKN025 07/04 Q1019 R06R/CLRD62 R06L/CLRD62 NOSIG

EXPIRED METARs :
  • 310630Z 36003MPS 9000 SCT010 BKN040 06/04 Q1018 R06R/CLRD62 R06L/CLRD62 NOSIG
  • 310600Z 36001MPS 8000 BKN027 05/04 Q1018 R06R/CLRD62 R06L/CLRD62 NOSIG
  • 310530Z VRB01MPS 9000 BKN039 05/04 Q1017 R06R/CLRD62 R06L/CLRD62 NOSIG
  • 310500Z VRB01MPS 8000 BKN027 05/04 Q1017 R06R/CLRD62 R06L/CLRD62 NOSIG
  • 310430Z 00000MPS 9000 OVC041 05/03 Q1017 R06R/CLRD62 R06L/CLRD62 NOSIG

TAF TAF UUEE
Valid from the 31 at 06:00 until the 01 at 06:00 UTC


310455Z 3106/0106 03003MPS 8000 BKN016 TX07/3112Z TN04/0103Z
TEMPO 3121/0106 FEW004 BKN011



MET'MAP, your aeronautical weather chart ! - Copyright ORBIFLY December 2007 - Disclaimer

ORBIFLY MET'MAP TEAM :

Programming & Development : Alexandra Zaïnal
Concept & original design : Baudouin d'Aumeries
Assistance for programming : Marc-Olivier Méhu
Technical & hardware support : Manuel Goepfert

Contact : metmap@orbifly.com




SOURCES & CREDITS :

   NOAA